createdAt,value
2022-10-16T00:00:51.395Z,13.43
2022-10-16T00:05:54.183Z,10.85
2022-10-16T00:11:01.599Z,8.82
2022-10-16T00:16:06.647Z,9.20
2022-10-16T00:21:11.808Z,8.05
2022-10-16T00:26:16.414Z,7.97
2022-10-16T00:31:23.025Z,8.57
2022-10-16T00:36:27.536Z,7.88
2022-10-16T00:41:31.544Z,8.38
2022-10-16T00:46:39.097Z,8.45
2022-10-16T00:51:44.454Z,4.23
2022-10-16T00:56:48.402Z,4.93
2022-10-16T01:01:52.996Z,6.38
2022-10-16T01:07:02.948Z,4.65
2022-10-16T01:12:10.474Z,6.28
2022-10-16T01:17:20.789Z,3.63
2022-10-16T01:22:28.150Z,5.25
2022-10-16T01:27:37.449Z,4.47
2022-10-16T01:32:43.746Z,5.28
2022-10-16T01:37:51.339Z,5.00
2022-10-16T01:43:01.920Z,4.70
2022-10-16T01:48:08.859Z,6.80
2022-10-16T01:53:16.055Z,5.95
2022-10-16T01:58:20.368Z,3.88
2022-10-16T02:03:23.561Z,5.28
2022-10-16T02:08:29.183Z,4.75
2022-10-16T02:13:39.595Z,7.07
2022-10-16T02:18:44.479Z,6.65
2022-10-16T02:23:53.471Z,4.53
2022-10-16T02:29:02.606Z,3.85
2022-10-16T02:34:08.516Z,5.50
2022-10-16T02:39:12.687Z,7.43
2022-10-16T02:44:17.076Z,5.57
2022-10-16T02:49:19.881Z,4.70
2022-10-16T02:54:22.764Z,4.50
2022-10-16T02:59:26.887Z,5.32
2022-10-16T03:04:29.650Z,4.70
2022-10-16T03:09:32.542Z,4.60
2022-10-16T03:14:36.799Z,3.95
2022-10-16T03:19:39.578Z,6.82
2022-10-16T03:24:42.353Z,5.90
2022-10-16T03:29:46.498Z,6.53
2022-10-16T03:34:49.327Z,5.15
2022-10-16T03:39:52.510Z,4.45
2022-10-16T03:44:56.696Z,6.07
2022-10-16T03:49:59.616Z,7.32
2022-10-16T03:55:02.597Z,5.00
2022-10-16T04:00:07.927Z,7.40
2022-10-16T04:05:14.769Z,4.30
2022-10-16T04:10:17.859Z,4.32
2022-10-16T04:15:22.033Z,4.85
2022-10-16T04:20:24.909Z,5.18
2022-10-16T04:25:27.810Z,5.05
2022-10-16T04:30:31.955Z,5.50
2022-10-16T04:35:34.738Z,6.97
2022-10-16T04:40:37.928Z,6.90
2022-10-16T04:45:42.280Z,8.18
2022-10-16T04:50:45.066Z,8.40
2022-10-16T04:55:48.228Z,7.25
2022-10-16T05:00:52.507Z,7.22
2022-10-16T05:05:55.786Z,9.75
2022-10-16T05:10:58.616Z,7.32
2022-10-16T05:16:02.809Z,7.70
2022-10-16T05:21:06.797Z,6.03
2022-10-16T05:26:10.771Z,6.35
2022-10-16T05:31:15.006Z,10.57
2022-10-16T05:36:19.206Z,7.97
2022-10-16T05:41:22.918Z,8.85
2022-10-16T05:46:27.088Z,6.10
2022-10-16T05:51:30.154Z,7.28
2022-10-16T05:56:33.266Z,6.22
2022-10-16T06:01:37.430Z,5.13
2022-10-16T06:06:40.302Z,6.72
2022-10-16T06:11:43.261Z,7.45
2022-10-16T06:16:47.376Z,7.90
2022-10-16T06:21:50.200Z,6.10
2022-10-16T06:26:52.955Z,7.53
2022-10-16T06:31:57.062Z,6.82
2022-10-16T06:36:59.797Z,8.07
2022-10-16T06:42:02.514Z,5.43
2022-10-16T06:47:13.557Z,5.97
2022-10-16T06:52:17.076Z,6.50
2022-10-16T06:57:20.493Z,4.47
2022-10-16T07:02:25.211Z,6.22
2022-10-16T07:07:28.420Z,5.28
2022-10-16T07:12:31.212Z,6.20
2022-10-16T07:17:35.306Z,6.40
2022-10-16T07:22:38.043Z,5.05
2022-10-16T07:27:41.020Z,7.55
2022-10-16T07:32:45.232Z,8.70
2022-10-16T07:37:48.553Z,5.70
2022-10-16T07:42:51.379Z,6.53
2022-10-16T07:47:55.516Z,5.72
2022-10-16T07:52:58.309Z,7.05
2022-10-16T07:58:01.528Z,4.32
2022-10-16T08:03:05.912Z,7.65
2022-10-16T08:08:08.804Z,5.13
2022-10-16T08:13:12.166Z,7.53
2022-10-16T08:18:17.169Z,5.50
2022-10-16T08:23:20.293Z,7.30
2022-10-16T08:28:24.136Z,6.30
2022-10-16T08:33:28.260Z,6.10
2022-10-16T08:38:31.218Z,4.90
2022-10-16T08:43:46.734Z,9.63
2022-10-16T08:48:53.748Z,6.30
2022-10-16T08:53:58.911Z,4.82
2022-10-16T08:59:03.310Z,6.07
2022-10-16T09:04:27.970Z,6.30
2022-10-16T09:09:56.496Z,6.63
2022-10-16T09:15:08.908Z,3.63
2022-10-16T09:20:31.252Z,3.67
2022-10-16T09:25:35.774Z,3.53
2022-10-16T09:30:40.348Z,4.75
2022-10-16T09:35:46.571Z,5.03
2022-10-16T09:40:58.841Z,4.93
2022-10-16T09:46:08.350Z,3.58
2022-10-16T09:51:21.837Z,6.78
2022-10-16T09:56:26.424Z,5.40
2022-10-16T10:01:33.717Z,4.22
2022-10-16T10:06:42.546Z,3.17
2022-10-16T10:11:50.122Z,6.10
2022-10-16T10:16:54.780Z,6.85
2022-10-16T10:21:58.915Z,3.63
2022-10-16T10:27:10.334Z,4.82
2022-10-16T10:32:28.618Z,5.38
2022-10-16T10:37:48.602Z,4.00
2022-10-16T10:42:55.660Z,4.35
2022-10-16T10:48:14.477Z,4.93
2022-10-16T10:53:34.687Z,4.05
2022-10-16T10:59:03.122Z,4.07
2022-10-16T11:04:31.839Z,3.58
2022-10-16T11:09:41.392Z,4.82
2022-10-16T11:14:51.648Z,3.42
2022-10-16T11:19:58.785Z,2.03
2022-10-16T11:25:13.945Z,2.88
2022-10-16T11:30:22.302Z,7.80
2022-10-16T11:35:30.543Z,4.25
2022-10-16T11:40:41.968Z,6.07
2022-10-16T11:45:48.560Z,4.18
2022-10-16T11:50:55.443Z,4.93
2022-10-16T11:55:59.670Z,3.60
2022-10-16T12:01:15.577Z,2.58
2022-10-16T12:06:33.533Z,5.93
2022-10-16T12:11:40.791Z,6.60
2022-10-16T12:16:53.608Z,5.70
2022-10-16T12:21:59.041Z,5.50
2022-10-16T12:27:03.752Z,4.45
2022-10-16T12:32:41.933Z,3.88
2022-10-16T12:42:50.952Z,4.90
2022-10-16T12:47:55.852Z,2.55
2022-10-16T12:52:59.126Z,3.80
2022-10-16T12:58:21.310Z,4.57
2022-10-16T13:04:03.386Z,4.10
2022-10-16T13:09:35.430Z,4.45
2022-10-16T13:15:01.835Z,4.45
2022-10-16T13:20:19.333Z,5.10
2022-10-16T13:25:33.932Z,5.47
2022-10-16T13:30:42.125Z,4.50
2022-10-16T13:40:55.867Z,3.65
2022-10-16T13:46:02.862Z,4.57
2022-10-16T13:51:08.887Z,2.25
2022-10-16T13:56:14.146Z,5.55
2022-10-16T14:01:22.192Z,2.97
2022-10-16T14:06:25.007Z,4.90
2022-10-16T14:11:28.339Z,5.40
2022-10-16T14:16:34.577Z,5.85
2022-10-16T14:21:38.256Z,6.13
2022-10-16T14:26:49.700Z,5.15
2022-10-16T14:31:59.439Z,5.15
2022-10-16T14:42:18.156Z,5.53
2022-10-16T14:47:26.770Z,5.43
2022-10-16T14:52:29.784Z,5.20
2022-10-16T14:57:38.076Z,6.28
2022-10-16T15:07:45.110Z,7.57
2022-10-16T15:12:48.612Z,5.75
2022-10-16T15:17:54.624Z,7.88
2022-10-16T15:22:58.021Z,4.28
2022-10-16T15:28:11.896Z,3.72
2022-10-16T15:33:21.757Z,5.82
2022-10-16T15:38:25.200Z,7.07
2022-10-16T15:43:29.110Z,6.28
2022-10-16T15:48:34.825Z,7.82
2022-10-16T15:53:47.329Z,7.28
2022-10-16T15:58:50.556Z,7.40
2022-10-16T16:03:56.969Z,8.00
2022-10-16T16:14:06.131Z,9.93
2022-10-16T16:19:11.710Z,8.00
2022-10-16T16:24:14.999Z,6.72
2022-10-16T16:29:18.446Z,6.63
2022-10-16T16:34:22.707Z,11.65
2022-10-16T16:39:26.289Z,10.30
2022-10-16T16:44:29.192Z,10.68
2022-10-16T16:49:33.614Z,11.73
2022-10-16T16:54:36.484Z,11.38
2022-10-16T16:59:40.687Z,8.95
2022-10-16T17:04:44.918Z,11.15
2022-10-16T17:09:47.847Z,12.50
2022-10-16T17:14:52.643Z,10.48
2022-10-16T17:19:56.796Z,11.32
2022-10-16T17:24:59.593Z,16.45
2022-10-16T17:30:02.411Z,10.18
2022-10-16T17:35:08.708Z,13.63
2022-10-16T17:45:19.332Z,9.02
2022-10-16T17:50:25.829Z,12.57
2022-10-16T17:55:29.008Z,8.15
2022-10-16T18:00:32.117Z,10.93
2022-10-16T18:05:39.336Z,14.48
2022-10-16T18:10:47.333Z,11.15
2022-10-16T18:16:01.082Z,9.50
2022-10-16T18:21:09.194Z,8.40
2022-10-16T18:26:13.938Z,7.72
2022-10-16T18:31:21.651Z,9.60
2022-10-16T18:36:29.944Z,8.90
2022-10-16T18:46:45.224Z,8.15
2022-10-16T18:51:52.957Z,10.50
2022-10-16T18:56:56.406Z,9.30
2022-10-16T19:01:59.754Z,13.15
2022-10-16T19:07:05.051Z,20.85
2022-10-16T19:12:14.891Z,9.35
2022-10-16T19:17:18.548Z,8.75
2022-10-16T19:22:51.931Z,12.60
2022-10-16T19:27:56.804Z,9.23
2022-10-16T19:33:06.832Z,9.02
2022-10-16T19:38:19.838Z,9.02
2022-10-16T19:43:24.509Z,8.50
2022-10-16T19:48:27.448Z,8.15
2022-10-16T19:53:46.604Z,9.15
2022-10-16T20:13:07.620Z,11.65
2022-10-16T20:18:19.500Z,11.40
2022-10-16T20:38:24.421Z,10.13
2022-10-16T20:48:52.491Z,10.60
2022-10-16T20:53:57.261Z,10.23
2022-10-16T20:59:01.650Z,10.63
2022-10-16T21:04:08.447Z,14.23
2022-10-16T21:09:11.315Z,11.40
2022-10-16T21:14:15.680Z,11.20
2022-10-16T21:19:19.345Z,12.25
2022-10-16T21:24:27.831Z,9.43
2022-10-16T21:29:32.247Z,8.95
2022-10-16T21:34:36.215Z,12.18
2022-10-16T21:39:39.396Z,10.32
2022-10-16T21:44:43.617Z,8.68
2022-10-16T21:49:46.539Z,9.32
2022-10-16T21:54:58.239Z,8.23
2022-10-16T22:00:05.439Z,11.40
2022-10-16T22:05:10.360Z,10.15
2022-10-16T22:10:13.292Z,9.93
2022-10-16T22:15:17.707Z,9.52
2022-10-16T22:20:20.602Z,9.48
2022-10-16T22:25:26.669Z,10.35
2022-10-16T22:30:30.917Z,8.98
2022-10-16T22:35:40.059Z,11.02
2022-10-16T22:40:42.860Z,9.40
2022-10-16T22:45:47.080Z,10.70
2022-10-16T22:50:50.061Z,8.13
2022-10-16T22:55:53.200Z,11.18
2022-10-16T23:06:00.252Z,10.35
2022-10-16T23:11:07.255Z,8.35
2022-10-16T23:16:13.172Z,6.90
2022-10-16T23:21:17.879Z,10.70
2022-10-16T23:26:23.448Z,7.57
2022-10-16T23:31:28.373Z,6.00
2022-10-16T23:36:31.585Z,7.75
2022-10-16T23:41:34.481Z,7.65
2022-10-16T23:46:39.549Z,8.30
2022-10-16T23:51:42.376Z,8.13
2022-10-16T23:56:45.171Z,9.68
